Terminal Aerodrome Forecast
Issued by NWS Melbourne, FL

Current Version | Previous Version | Text Only | Print | Product List | Glossary On
Versions: 1 2 3 4 5 6 7 8 9 10 11 12 13 14
000
FTUS42 KMLB 011100
TAFMLB
TAF
KMLB 011127Z 0112/0212 VRB03KT P6SM FEW020 SCT060
     FM011300 33005KT P6SM VCSH FEW010 BKN080
     FM011600 03007KT P6SM VCSH SCT025 BKN060
     FM012300 09007KT P6SM FEW025 SCT100 SCT250=

USA.gov is the U.S. government's official web portal to all federal, state and local government web resources and services.